Главная страница
METAR-TAF:

METAR-TAF

Аэропорты :

Нуакшот, Мавритания

широта: 18-18-36N, долгота: 015-58-11W, высота над уровнем моря: 3 м

Текущие метеонаблюдения

Эта сводка был подготовлена 26 минут назад, в 01:00 UTC
Ветер 8 Узел от западный
Температура 22°C
Влажность 83%
Давление 1011 hPa
Видимость: 8000 м

METAR: GQNO 240100Z 27008KT 8000 NSC 22/19 Q1011 NOSIG

Время: 01:26 (01:26 UTC)

Прогноз

Эта сводка был подготовлена 2 часа и 26 минут назад, в 23:00 UTC
Прогноз действительный с 24-го 00 UTC до 25-го 06 UTC
Ветер 10 Узел от западный
Видимость: 7000 м
временами
С 24-го 08 UTC до 24-го 12 UTC
Ветер 5 Узел от южный-юго-западный
изменения
С 25-го 03 UTC до 25-го 06 UTC
Ветер 10 Узел от северно-северо-западный

TAF: GQNO 232300Z 2400/2506 26010KT 7000 NSC TEMPO 2408/2412 20005KT BECMG 2503/2506 33010KT

Метеонаблюдения и прогнозы для более 4000 аэропортов (сводки METAR и TAF).

Имеющиеся станции представлены на карте желтыми и красными точками.

Чтобы увидеть название станции, наведите на нее мышь.

Затем щелкните, чтобы увидеть метеонаблюдения и метеопрогнозы.

Управление картой: чтобы увеличить масштаб, щелкните зеленые кнопки с черным крестиком; чтобы уменьшить масштаб, щелкните зеленую кнопку с тире; для просмотра соседних карт щелкайте зеленые стрелки.


METAR-TAF: